Time;durP1;ratioP1;P1;durP2;ratioP2;P2;SDS_P1;SDS_P2;PMS_P1;PMS_P2;Temp;Humidity;BMP_temperature;BMP_pressure;BME280_temperature;BME280_humidity;BME280_pressure;Samples;Min_cycle;Max_cycle;Signal;HPM_P1;HPM_P2
2024/02/06 05:05:39;;;;;;;0.40;0.40;;;4.40;99.90;;;;;;5911317;23;20660;-70
2024/02/06 05:08:05;;;;;;;0.30;0.30;;;4.40;99.90;;;;;;4979080;28;20197;-69
2024/02/06 05:10:31;;;;;;;0.30;0.30;;;4.40;99.90;;;;;;4974869;28;20186;-69
2024/02/06 05:12:57;;;;;;;0.40;0.40;;;4.40;99.90;;;;;;4975653;28;20743;-69
2024/02/06 05:15:22;;;;;;;0.30;0.30;;;4.50;99.90;;;;;;4974014;28;20453;-70
2024/02/06 05:17:48;;;;;;;0.30;0.30;;;4.60;99.90;;;;;;4975736;28;20222;-69
2024/02/06 05:20:13;;;;;;;0.90;0.60;;;4.60;99.90;;;;;;4976364;28;20185;-70
2024/02/06 05:22:39;;;;;;;0.30;0.30;;;4.70;99.90;;;;;;4975825;28;20251;-69
2024/02/06 05:25:05;;;;;;;0.30;0.30;;;4.80;99.90;;;;;;4974988;28;20629;-69
2024/02/06 05:27:31;;;;;;;0.30;0.30;;;4.90;99.90;;;;;;4974340;28;20176;-69
2024/02/06 05:29:57;;;;;;;0.30;0.30;;;4.90;99.90;;;;;;4975466;28;20174;-70
2024/02/06 05:32:23;;;;;;;0.40;0.40;;;5.00;99.90;;;;;;4975309;28;20689;-69
2024/02/06 05:34:53;;;;;;;0.40;0.40;;;5.10;99.90;;;;;;4974491;28;20183;-69
2024/02/06 05:37:19;;;;;;;0.40;0.40;;;5.10;99.90;;;;;;4975035;28;20199;-69
2024/02/06 05:39:45;;;;;;;0.30;0.30;;;5.20;99.90;;;;;;4975592;28;20503;-68
2024/02/06 05:42:12;;;;;;;0.33;0.33;;;5.40;99.90;;;;;;4975347;28;20190;-69
2024/02/06 05:44:38;;;;;;;0.30;0.30;;;5.50;99.90;;;;;;4973596;28;20434;-69
2024/02/06 05:47:05;;;;;;;0.40;0.40;;;5.60;99.90;;;;;;4974941;28;20208;-69
2024/02/06 05:49:32;;;;;;;0.30;0.30;;;5.70;99.90;;;;;;4973846;28;20180;-69
2024/02/06 05:51:58;;;;;;;0.40;0.40;;;5.80;99.90;;;;;;4953660;29;20278;-69
2024/02/06 05:54:25;;;;;;;0.50;0.50;;;6.00;99.90;;;;;;4953488;29;20653;-69
2024/02/06 05:56:50;;;;;;;0.50;0.50;;;6.00;99.90;;;;;;4953739;29;20215;-70
2024/02/06 05:59:16;;;;;;;0.30;0.30;;;6.20;99.90;;;;;;4953293;29;20238;-68
2024/02/06 06:01:41;;;;;;;0.47;0.47;;;6.20;99.90;;;;;;4953253;29;20203;-69
2024/02/06 06:04:07;;;;;;;0.33;0.33;;;6.30;99.90;;;;;;4953818;29;20180;-69
2024/02/06 06:06:33;;;;;;;0.30;0.30;;;6.40;99.90;;;;;;4952812;29;20255;-68
2024/02/06 06:08:59;;;;;;;0.40;0.40;;;6.50;99.90;;;;;;4953731;29;20507;-70
2024/02/06 06:11:25;;;;;;;0.30;0.30;;;6.60;99.90;;;;;;4952970;29;20216;-69
2024/02/06 06:13:50;;;;;;;0.30;0.30;;;6.60;99.90;;;;;;4952793;29;20184;-69
2024/02/06 06:16:16;;;;;;;0.40;0.40;;;6.70;99.90;;;;;;4951823;29;20447;-69
2024/02/06 06:18:41;;;;;;;0.30;0.30;;;6.70;99.90;;;;;;4954046;29;20184;-69
2024/02/06 06:21:07;;;;;;;0.30;0.30;;;6.70;99.90;;;;;;4953710;29;20760;-71
2024/02/06 06:23:33;;;;;;;0.40;0.40;;;6.70;99.90;;;;;;4969621;28;20188;-71
2024/02/06 06:25:59;;;;;;;0.30;0.30;;;6.80;99.90;;;;;;4974202;28;20204;-71
2024/02/06 06:28:25;;;;;;;0.40;0.40;;;6.80;99.90;;;;;;4971966;28;20260;-71
2024/02/06 06:30:51;;;;;;;0.33;0.33;;;6.80;99.90;;;;;;4982788;28;20653;-70
2024/02/06 06:33:18;;;;;;;0.30;0.30;;;6.90;99.90;;;;;;4993226;28;20246;-69
2024/02/06 06:35:43;;;;;;;0.30;0.30;;;6.90;99.90;;;;;;4973779;28;20203;-72
2024/02/06 06:38:09;;;;;;;0.30;0.30;;;6.80;99.90;;;;;;4974460;28;20222;-67
2024/02/06 06:40:35;;;;;;;0.30;0.30;;;6.80;99.90;;;;;;4974073;28;20183;-66
2024/02/06 06:43:01;;;;;;;0.30;0.30;;;6.80;99.90;;;;;;4974916;28;20419;-68
2024/02/06 06:45:27;;;;;;;0.30;0.30;;;6.70;99.90;;;;;;4972692;28;20209;-69
2024/02/06 06:47:53;;;;;;;0.30;0.30;;;6.70;99.90;;;;;;4974563;28;20168;-75
2024/02/06 06:50:19;;;;;;;0.30;0.30;;;6.70;99.90;;;;;;4971850;28;20672;-67
2024/02/06 06:52:44;;;;;;;0.30;0.30;;;6.70;99.90;;;;;;4955515;28;20643;-68
2024/02/06 06:55:10;;;;;;;0.30;0.30;;;6.70;99.90;;;;;;4953613;29;20207;-68
2024/02/06 06:57:42;;;;;;;0.30;0.30;;;6.70;99.90;;;;;;4971990;28;20184;-68
2024/02/06 07:00:11;;;;;;;0.30;0.30;;;6.70;99.90;;;;;;4976350;28;20412;-68
2024/02/06 07:02:38;;;;;;;0.30;0.30;;;6.70;99.90;;;;;;4986687;28;20207;-69
2024/02/06 07:05:06;;;;;;;0.40;0.40;;;6.70;99.90;;;;;;4986686;28;20164;-70
2024/02/06 07:07:32;;;;;;;0.40;0.40;;;6.70;99.90;;;;;;4985492;28;20192;-70
2024/02/06 07:09:58;;;;;;;0.30;0.30;;;6.70;99.90;;;;;;4987339;28;20178;-70
2024/02/06 07:12:25;;;;;;;0.40;0.40;;;6.80;99.90;;;;;;4983588;28;20184;-68
2024/02/06 07:14:50;;;;;;;1.35;1.35;;;6.80;99.90;;;;;;4977953;28;20168;-67
2024/02/06 07:17:17;;;;;;;0.40;0.40;;;6.80;99.90;;;;;;4975274;28;20554;-68
2024/02/06 07:19:43;;;;;;;0.30;0.30;;;6.80;99.90;;;;;;4960245;28;20176;-68
2024/02/06 07:22:09;;;;;;;0.30;0.30;;;6.80;99.90;;;;;;4955414;29;20180;-69
2024/02/06 07:24:34;;;;;;;0.47;0.47;;;6.80;99.90;;;;;;4955104;29;20232;-69
2024/02/06 07:27:00;;;;;;;0.30;0.30;;;6.80;99.90;;;;;;4975105;28;20208;-70
2024/02/06 07:29:26;;;;;;;0.30;0.30;;;6.70;99.90;;;;;;4982292;28;20180;-68
2024/02/06 07:31:52;;;;;;;0.30;0.30;;;6.70;99.90;;;;;;4975163;28;20219;-69
2024/02/06 07:34:20;;;;;;;0.40;0.40;;;6.70;99.90;;;;;;4977454;28;20418;-69
2024/02/06 07:36:46;;;;;;;0.40;0.40;;;6.70;99.90;;;;;;4980555;28;20195;-74
2024/02/06 07:39:12;;;;;;;0.40;0.40;;;6.70;99.90;;;;;;4981428;28;20176;-71
2024/02/06 07:41:38;;;;;;;0.30;0.30;;;6.70;99.90;;;;;;4977930;28;20662;-70
2024/02/06 07:44:04;;;;;;;0.30;0.30;;;6.60;99.90;;;;;;4975650;28;20172;-70
2024/02/06 07:46:30;;;;;;;0.30;0.30;;;6.60;99.90;;;;;;4973377;28;20450;-72
2024/02/06 07:48:56;;;;;;;0.30;0.30;;;6.60;99.90;;;;;;4972701;28;20897;-70
2024/02/06 07:51:22;;;;;;;0.30;0.30;;;6.60;99.90;;;;;;4961854;28;20208;-68
2024/02/06 07:53:49;;;;;;;0.40;0.40;;;6.60;99.90;;;;;;4958123;28;20447;-69
2024/02/06 07:56:16;;;;;;;0.30;0.30;;;6.70;99.90;;;;;;4957818;28;20212;-70
2024/02/06 07:58:41;;;;;;;0.40;0.40;;;6.60;99.90;;;;;;4958039;28;20169;-68
2024/02/06 08:01:07;;;;;;;0.30;0.30;;;6.70;99.90;;;;;;4957920;29;20181;-68
2024/02/06 08:03:32;;;;;;;0.30;0.30;;;6.70;99.90;;;;;;4958114;28;20583;-71
2024/02/06 08:05:58;;;;;;;0.30;0.30;;;6.70;99.90;;;;;;4957137;28;20201;-69
2024/02/06 08:08:24;;;;;;;0.30;0.30;;;6.70;99.90;;;;;;4968402;28;20187;-68
2024/02/06 08:10:50;;;;;;;0.30;0.30;;;6.70;99.90;;;;;;4976004;28;20177;-70
2024/02/06 08:13:16;;;;;;;0.30;0.30;;;6.70;99.90;;;;;;4977698;28;20233;-66
2024/02/06 08:15:42;;;;;;;0.30;0.30;;;6.70;99.90;;;;;;4994790;28;20225;-67
2024/02/06 08:18:08;;;;;;;0.30;0.30;;;6.80;99.90;;;;;;4980513;28;20777;-68
2024/02/06 08:20:33;;;;;;;0.40;0.40;;;6.80;99.90;;;;;;4975742;28;20172;-68
2024/02/06 08:22:59;;;;;;;0.30;0.30;;;6.90;99.90;;;;;;4976843;28;20422;-68
2024/02/06 08:25:25;;;;;;;0.33;0.33;;;6.90;99.90;;;;;;4976345;28;20196;-68
2024/02/06 08:27:51;;;;;;;0.30;0.30;;;7.00;99.90;;;;;;4975365;28;20180;-68
2024/02/06 08:30:17;;;;;;;0.30;0.30;;;7.00;99.90;;;;;;4976748;28;20168;-68
2024/02/06 08:32:44;;;;;;;0.30;0.30;;;7.10;99.90;;;;;;4976807;28;20176;-69
2024/02/06 08:35:09;;;;;;;0.30;0.30;;;7.10;99.90;;;;;;4976461;28;20191;-69
2024/02/06 08:37:35;;;;;;;0.30;0.30;;;7.10;99.90;;;;;;4976742;28;20646;-68
2024/02/06 08:40:05;;;;;;;0.30;0.30;;;7.20;99.90;;;;;;4976892;28;20176;-68
2024/02/06 08:42:31;;;;;;;0.30;0.30;;;7.20;99.90;;;;;;4976716;28;20186;-69
2024/02/06 08:44:57;;;;;;;0.30;0.30;;;7.20;99.90;;;;;;4976386;28;20164;-69
2024/02/06 08:47:23;;;;;;;0.30;0.30;;;7.20;99.90;;;;;;4976663;28;20541;-68
2024/02/06 08:49:50;;;;;;;0.30;0.30;;;7.30;99.90;;;;;;4976691;28;20562;-69
2024/02/06 08:52:15;;;;;;;0.30;0.30;;;7.40;99.90;;;;;;4976663;28;20626;-69
2024/02/06 08:54:41;;;;;;;0.60;0.60;;;7.40;99.90;;;;;;4976245;28;20566;-68
2024/02/06 08:57:06;;;;;;;0.67;0.67;;;7.50;99.90;;;;;;4976218;28;20227;-68
2024/02/06 08:59:32;;;;;;;0.30;0.30;;;7.70;99.90;;;;;;4976334;28;20586;-68
2024/02/06 09:02:01;;;;;;;0.30;0.30;;;7.80;99.90;;;;;;4976032;28;20179;-68
2024/02/06 09:04:26;;;;;;;0.30;0.30;;;7.90;99.90;;;;;;4975577;28;20412;-69
2024/02/06 09:06:52;;;;;;;0.30;0.30;;;7.90;99.90;;;;;;4974647;28;20219;-69
2024/02/06 09:09:19;;;;;;;0.30;0.30;;;7.90;99.90;;;;;;4974778;28;20921;-69
2024/02/06 09:11:44;;;;;;;0.30;0.30;;;7.90;99.90;;;;;;4976098;28;20225;-69
2024/02/06 09:14:10;;;;;;;0.30;0.20;;;7.90;99.90;;;;;;4974799;28;20180;-69
2024/02/06 09:16:35;;;;;;;0.30;0.30;;;7.90;99.90;;;;;;4975814;28;20646;-68
2024/02/06 09:19:01;;;;;;;0.30;0.30;;;7.90;99.90;;;;;;4976123;28;20524;-68
2024/02/06 09:21:26;;;;;;;0.30;0.30;;;8.00;99.90;;;;;;4975846;28;20185;-68
2024/02/06 09:23:52;;;;;;;0.33;0.33;;;8.00;99.90;;;;;;4975993;28;20596;-68
2024/02/06 09:26:18;;;;;;;0.37;0.37;;;8.10;99.90;;;;;;4975491;28;20218;-69
2024/02/06 09:28:44;;;;;;;0.30;0.30;;;8.10;99.90;;;;;;4975717;28;20246;-69
2024/02/06 09:31:11;;;;;;;0.30;0.30;;;8.30;99.90;;;;;;4975676;28;20172;-68
2024/02/06 09:33:37;;;;;;;0.30;0.30;;;8.30;99.90;;;;;;4975866;28;20173;-69
2024/02/06 09:36:04;;;;;;;0.40;0.40;;;8.40;99.90;;;;;;4975225;28;20200;-69
2024/02/06 09:38:29;;;;;;;0.30;0.30;;;8.50;99.90;;;;;;4975785;28;20176;-69
2024/02/06 09:40:55;;;;;;;0.30;0.30;;;8.50;99.90;;;;;;4975925;28;20538;-68
2024/02/06 09:43:24;;;;;;;0.30;0.30;;;8.60;99.90;;;;;;4975510;28;20593;-69
2024/02/06 09:45:50;;;;;;;0.30;0.30;;;8.70;99.90;;;;;;4973752;28;20838;-68
2024/02/06 09:48:16;;;;;;;0.30;0.30;;;8.80;99.90;;;;;;4975510;28;20251;-68
2024/02/06 09:50:45;;;;;;;0.32;0.32;;;8.90;99.90;;;;;;4975427;28;20168;-68
2024/02/06 09:53:11;;;;;;;0.30;0.30;;;8.90;99.90;;;;;;4973909;28;20182;-69
2024/02/06 09:55:41;;;;;;;0.70;0.50;;;9.10;99.90;;;;;;4975042;28;20204;-69
2024/02/06 09:58:08;;;;;;;0.30;0.30;;;9.20;99.90;;;;;;4975440;28;20172;-68
2024/02/06 10:00:37;;;;;;;0.30;0.30;;;9.30;99.90;;;;;;4975276;28;20697;-69
2024/02/06 10:03:20;;;;;;;0.30;0.30;;;9.40;99.90;;;;;;4975282;28;20530;-69
2024/02/06 10:05:48;;;;;;;0.30;0.30;;;9.40;99.90;;;;;;4972463;28;20206;-69
2024/02/06 10:08:14;;;;;;;0.30;0.30;;;9.40;99.90;;;;;;4965140;28;20706;-69
2024/02/06 10:10:43;;;;;;;0.40;0.40;;;9.50;99.90;;;;;;4961381;28;20199;-68
2024/02/06 10:13:10;;;;;;;0.30;0.30;;;9.50;99.90;;;;;;4974803;28;20193;-69
2024/02/06 10:15:36;;;;;;;0.30;0.30;;;9.50;99.90;;;;;;4970742;28;20212;-72
2024/02/06 10:18:02;;;;;;;0.30;0.30;;;9.50;99.90;;;;;;4974235;28;20216;-72
2024/02/06 10:20:39;;;;;;;0.30;0.20;;;9.50;99.90;;;;;;4962957;28;20664;-72
2024/02/06 10:23:16;;;;;;;0.30;0.30;;;9.50;99.90;;;;;;4993753;28;20175;-72
2024/02/06 10:25:42;;;;;;;0.30;0.30;;;9.60;99.90;;;;;;4991264;28;20200;-70
2024/02/06 10:28:08;;;;;;;0.30;0.30;;;9.60;99.90;;;;;;4957748;28;20442;-71
2024/02/06 10:30:35;;;;;;;0.30;0.30;;;9.60;99.90;;;;;;4960762;28;20531;-71
2024/02/06 10:33:12;;;;;;;0.30;0.30;;;9.60;99.90;;;;;;4955382;28;20208;-71
2024/02/06 10:35:37;;;;;;;0.30;0.30;;;9.60;99.90;;;;;;4966356;28;20290;-70
2024/02/06 10:38:03;;;;;;;0.30;0.20;;;9.70;99.90;;;;;;4973112;28;20271;-70
2024/02/06 10:40:29;;;;;;;0.30;0.30;;;9.60;99.90;;;;;;4974693;28;20273;-70
2024/02/06 10:42:55;;;;;;;0.30;0.30;;;9.70;99.90;;;;;;4974630;28;20386;-70
2024/02/06 10:45:20;;;;;;;0.30;0.30;;;9.80;99.90;;;;;;4960855;28;20222;-71
2024/02/06 10:47:59;;;;;;;0.30;0.20;;;9.90;99.90;;;;;;4955429;29;20444;-69
2024/02/06 10:50:28;;;;;;;0.40;0.40;;;10.00;99.90;;;;;;4954217;29;20190;-70
2024/02/06 10:52:54;;;;;;;0.30;0.30;;;10.00;99.90;;;;;;4973454;28;20189;-70
2024/02/06 10:55:21;;;;;;;0.30;0.23;;;9.90;99.90;;;;;;4972990;28;20785;-71
2024/02/06 10:57:47;;;;;;;0.30;0.30;;;10.00;99.90;;;;;;4961009;28;20493;-70
2024/02/06 11:00:20;;;;;;;0.30;0.30;;;10.00;99.90;;;;;;4970901;28;20444;-70
2024/02/06 11:02:56;;;;;;;0.63;0.63;;;10.00;99.90;;;;;;4971465;28;20173;-70
2024/02/06 11:05:45;;;;;;;0.30;0.30;;;10.10;99.90;;;;;;4973663;28;20311;-70
2024/02/06 11:08:21;;;;;;;0.30;0.30;;;10.00;99.90;;;;;;4964671;28;20500;-71
2024/02/06 11:10:58;;;;;;;0.30;0.30;;;10.10;99.90;;;;;;4974467;28;20397;-71
2024/02/06 11:13:46;;;;;;;0.30;0.30;;;10.10;99.90;;;;;;4974146;28;20773;-72
2024/02/06 11:16:16;;;;;;;0.30;0.20;;;10.10;99.90;;;;;;4965007;28;20466;-69
2024/02/06 11:18:53;;;;;;;0.30;0.30;;;10.30;99.90;;;;;;4964102;28;20504;-70
2024/02/06 11:21:21;;;;;;;0.30;0.30;;;10.30;99.90;;;;;;4973986;28;20421;-70
2024/02/06 11:23:49;;;;;;;0.30;0.30;;;10.30;99.90;;;;;;4974480;28;20425;-71
2024/02/06 11:26:16;;;;;;;0.30;0.30;;;10.30;99.90;;;;;;4976238;28;20775;-69
2024/02/06 11:28:42;;;;;;;0.30;0.30;;;10.40;99.90;;;;;;4977038;28;20383;-68
2024/02/06 11:31:08;;;;;;;0.30;0.30;;;10.40;99.90;;;;;;4974138;28;20482;-71
2024/02/06 11:33:38;;;;;;;0.30;0.30;;;10.40;99.90;;;;;;4972752;28;20778;-70
2024/02/06 11:36:13;;;;;;;0.30;0.30;;;10.40;99.90;;;;;;4974928;28;20453;-70
2024/02/06 11:38:39;;;;;;;0.30;0.30;;;10.40;99.90;;;;;;4977720;28;20459;-70
2024/02/06 11:41:23;;;;;;;0.30;0.30;;;10.50;99.90;;;;;;4976963;28;20425;-69
2024/02/06 11:43:50;;;;;;;0.30;0.30;;;10.50;99.90;;;;;;4972983;28;20461;-69
2024/02/06 11:46:18;;;;;;;0.30;0.30;;;10.60;99.90;;;;;;4976847;28;20481;-69
2024/02/06 11:48:46;;;;;;;0.37;0.37;;;10.60;99.90;;;;;;4977696;28;20406;-69
2024/02/06 11:51:11;;;;;;;0.30;0.30;;;10.70;99.90;;;;;;4977009;28;20436;-69
2024/02/06 11:53:37;;;;;;;0.30;0.20;;;10.70;99.90;;;;;;4977305;28;20497;-68
2024/02/06 11:56:04;;;;;;;0.30;0.30;;;10.70;99.90;;;;;;4969199;28;20235;-69
2024/02/06 11:58:35;;;;;;;0.30;0.30;;;10.70;99.90;;;;;;4958112;28;20202;-69
2024/02/06 12:01:04;;;;;;;0.30;0.30;;;10.80;99.90;;;;;;4956667;29;20796;-70
2024/02/06 12:03:30;;;;;;;0.30;0.30;;;10.70;99.90;;;;;;4977200;28;20441;-69
2024/02/06 12:05:55;;;;;;;0.30;0.30;;;10.80;99.90;;;;;;4976760;28;20461;-69
2024/02/06 12:08:21;;;;;;;0.30;0.30;;;10.80;99.90;;;;;;4961441;28;20196;-69
2024/02/06 12:10:47;;;;;;;0.30;0.30;;;10.90;99.90;;;;;;4974176;28;20639;-69
2024/02/06 12:13:14;;;;;;;0.30;0.30;;;10.90;99.90;;;;;;4996617;28;20187;-70
2024/02/06 12:15:41;;;;;;;0.30;0.30;;;10.90;99.90;;;;;;4971944;28;20217;-68
2024/02/06 12:18:10;;;;;;;0.30;0.30;;;10.90;99.90;;;;;;4963291;28;20431;-69
2024/02/06 12:20:36;;;;;;;0.30;0.30;;;11.00;99.90;;;;;;4965487;28;20773;-69
2024/02/06 12:23:09;;;;;;;0.30;0.30;;;11.10;99.90;;;;;;4965560;28;20465;-69
2024/02/06 12:25:38;;;;;;;0.33;0.33;;;11.20;99.90;;;;;;4962994;28;20689;-69
2024/02/06 12:28:15;;;;;;;0.30;0.30;;;11.30;99.90;;;;;;4970802;28;20437;-70
2024/02/06 12:30:43;;;;;;;0.30;0.30;;;11.30;99.90;;;;;;4963986;28;20443;-69
2024/02/06 12:33:09;;;;;;;0.43;0.43;;;11.40;99.90;;;;;;4965530;28;20435;-69
2024/02/06 12:35:37;;;;;;;0.37;0.37;;;11.50;99.90;;;;;;4964872;28;21031;-70
2024/02/06 12:38:03;;;;;;;0.30;0.30;;;11.50;99.90;;;;;;4963856;28;21942;-69
2024/02/06 12:40:31;;;;;;;0.30;0.30;;;11.60;99.90;;;;;;4967637;28;20745;-69
2024/02/06 12:43:01;;;;;;;0.30;0.30;;;11.70;99.90;;;;;;4966184;28;20431;-69
2024/02/06 12:45:27;;;;;;;0.30;0.30;;;11.70;99.90;;;;;;4968569;28;20466;-67
2024/02/06 12:47:54;;;;;;;0.30;0.30;;;11.80;99.90;;;;;;4967696;28;20556;-69
2024/02/06 12:50:20;;;;;;;0.33;0.30;;;11.90;99.90;;;;;;4970599;28;20458;-70
2024/02/06 12:52:51;;;;;;;0.30;0.30;;;11.90;99.90;;;;;;4972805;28;20838;-66
2024/02/06 12:55:17;;;;;;;0.30;0.30;;;11.90;99.90;;;;;;4975218;28;20882;-67
2024/02/06 12:57:45;;;;;;;0.30;0.30;;;12.00;99.90;;;;;;4975969;28;20414;-67
2024/02/06 13:00:13;;;;;;;0.30;0.30;;;12.10;99.90;;;;;;4973229;28;20414;-66
2024/02/06 13:02:39;;;;;;;0.30;0.30;;;12.20;99.90;;;;;;4974769;28;20459;-66
2024/02/06 13:05:09;;;;;;;0.30;0.20;;;12.10;99.90;;;;;;4974289;28;20832;-66
2024/02/06 13:07:36;;;;;;;0.40;0.40;;;12.10;99.90;;;;;;4972187;28;20462;-68
2024/02/06 13:10:07;;;;;;;0.30;0.30;;;12.20;99.90;;;;;;4972066;28;20427;-69
2024/02/06 13:12:33;;;;;;;0.30;0.30;;;12.20;99.90;;;;;;4976032;28;20408;-69
2024/02/06 13:15:02;;;;;;;0.30;0.30;;;12.20;99.90;;;;;;4975450;28;20378;-70
2024/02/06 13:17:27;;;;;;;0.30;0.20;;;12.20;99.90;;;;;;4975714;28;20481;-70
2024/02/06 13:20:10;;;;;;;0.30;0.20;;;12.30;99.90;;;;;;4976180;28;20502;-68
2024/02/06 13:22:37;;;;;;;1.83;1.43;;;12.20;99.90;;;;;;4976153;28;20176;-71
2024/02/06 13:25:03;;;;;;;0.30;0.30;;;12.20;99.90;;;;;;4975596;28;20418;-68
2024/02/06 13:27:30;;;;;;;0.30;0.20;;;12.20;99.90;;;;;;4973693;28;20459;-68
2024/02/06 13:29:55;;;;;;;0.30;0.30;;;12.20;99.90;;;;;;4973165;28;20426;-69
2024/02/06 13:32:21;;;;;;;0.30;0.30;;;12.20;99.90;;;;;;4956314;28;20770;-70
2024/02/06 13:34:47;;;;;;;0.30;0.30;;;12.00;99.90;;;;;;4970090;28;20188;-73
2024/02/06 13:37:15;;;;;;;0.30;0.20;;;12.00;99.90;;;;;;4975487;28;20191;-68
2024/02/06 13:39:41;;;;;;;0.30;0.30;;;11.90;99.90;;;;;;4975730;28;20707;-71
2024/02/06 13:42:06;;;;;;;0.30;0.20;;;11.90;99.90;;;;;;4963978;28;20944;-72
2024/02/06 13:44:32;;;;;;;0.30;0.30;;;11.90;99.90;;;;;;4955704;29;20390;-68
2024/02/06 13:46:57;;;;;;;0.30;0.20;;;11.90;99.90;;;;;;4965274;28;20250;-69
2024/02/06 13:49:23;;;;;;;0.50;0.50;;;11.80;99.90;;;;;;4955460;28;20685;-70
2024/02/06 13:51:49;;;;;;;0.30;0.30;;;11.80;99.90;;;;;;4963371;28;20209;-68
2024/02/06 13:54:14;;;;;;;0.30;0.20;;;11.80;99.90;;;;;;4975177;28;20234;-69
2024/02/06 13:56:41;;;;;;;0.30;0.30;;;11.80;99.90;;;;;;4974956;28;20196;-69
2024/02/06 13:59:07;;;;;;;0.30;0.20;;;11.70;99.90;;;;;;4973614;28;20277;-68
2024/02/06 14:01:32;;;;;;;0.30;0.30;;;11.60;99.90;;;;;;4975096;28;20554;-69
2024/02/06 14:03:58;;;;;;;0.30;0.30;;;11.60;99.90;;;;;;4974885;28;20672;-71
2024/02/06 14:06:23;;;;;;;0.30;0.30;;;11.60;99.90;;;;;;4973190;28;20200;-69
2024/02/06 14:08:51;;;;;;;0.30;0.30;;;11.50;99.90;;;;;;4974304;28;20195;-68
2024/02/06 14:11:17;;;;;;;0.30;0.30;;;11.60;99.90;;;;;;4972404;28;20179;-69
2024/02/06 14:13:42;;;;;;;3.07;2.77;;;11.50;99.90;;;;;;4955997;29;20415;-69
2024/02/06 14:16:09;;;;;;;0.30;0.30;;;11.50;99.90;;;;;;4955015;29;20187;-70
2024/02/06 14:18:35;;;;;;;0.30;0.30;;;11.40;99.90;;;;;;4957445;28;20464;-68
2024/02/06 14:21:01;;;;;;;1.33;1.33;;;11.40;99.90;;;;;;4974956;28;20397;-69
2024/02/06 14:23:27;;;;;;;0.30;0.30;;;11.40;99.90;;;;;;4973962;28;20634;-70
2024/02/06 14:25:52;;;;;;;0.30;0.20;;;11.30;99.90;;;;;;4969977;28;20629;-68
2024/02/06 14:28:18;;;;;;;0.30;0.30;;;11.30;99.90;;;;;;4974442;28;20443;-69
2024/02/06 14:30:44;;;;;;;0.30;0.30;;;11.20;99.90;;;;;;4974582;28;20172;-67
2024/02/06 14:33:09;;;;;;;0.30;0.30;;;11.20;99.90;;;;;;4974656;28;20179;-66
2024/02/06 14:35:35;;;;;;;0.30;0.30;;;11.20;99.90;;;;;;4973029;28;20607;-68
2024/02/06 14:38:01;;;;;;;0.30;0.30;;;11.10;99.90;;;;;;4973107;28;20450;-68
2024/02/06 14:40:27;;;;;;;0.30;0.30;;;11.20;99.90;;;;;;4968727;28;20427;-68
2024/02/06 14:42:53;;;;;;;1.43;1.17;;;11.10;99.90;;;;;;4974174;28;20190;-69
2024/02/06 14:45:18;;;;;;;0.30;0.20;;;11.10;99.90;;;;;;4974409;28;20244;-68
2024/02/06 14:47:44;;;;;;;0.30;0.30;;;11.10;99.90;;;;;;4974451;28;20420;-68
2024/02/06 14:50:10;;;;;;;0.60;0.60;;;11.10;99.90;;;;;;4973137;28;20260;-66
2024/02/06 14:52:35;;;;;;;0.60;0.60;;;11.10;99.90;;;;;;4955690;29;20207;-68
2024/02/06 14:55:01;;;;;;;0.30;0.30;;;11.00;99.90;;;;;;4954574;29;20463;-67
2024/02/06 14:57:26;;;;;;;0.30;0.30;;;11.00;99.90;;;;;;4956877;28;20665;-67
2024/02/06 14:59:52;;;;;;;0.40;0.40;;;11.00;99.90;;;;;;4972987;28;20191;-67
2024/02/06 15:02:17;;;;;;;0.30;0.30;;;10.90;99.90;;;;;;4955267;28;20191;-67
2024/02/06 15:04:43;;;;;;;0.37;0.37;;;10.90;99.90;;;;;;4954656;29;20179;-68
2024/02/06 15:07:10;;;;;;;0.30;0.30;;;10.90;99.90;;;;;;4964821;28;20223;-68
2024/02/06 15:09:36;;;;;;;0.40;0.40;;;10.90;99.90;;;;;;4974171;28;20507;-68
2024/02/06 15:12:02;;;;;;;0.30;0.30;;;10.90;99.90;;;;;;4973553;28;20467;-68
2024/02/06 15:14:28;;;;;;;0.30;0.30;;;10.90;99.90;;;;;;4973966;28;20438;-68
2024/02/06 15:16:54;;;;;;;0.30;0.30;;;10.90;99.90;;;;;;4970344;28;20497;-66
2024/02/06 15:19:20;;;;;;;0.30;0.30;;;10.90;99.90;;;;;;4969947;28;20270;-67
2024/02/06 15:21:46;;;;;;;0.30;0.30;;;10.80;99.90;;;;;;4953544;29;20521;-66
2024/02/06 15:24:11;;;;;;;0.30;0.30;;;10.80;99.90;;;;;;4954614;28;20187;-67
2024/02/06 15:26:39;;;;;;;0.30;0.30;;;10.70;99.90;;;;;;4955028;29;20206;-69
2024/02/06 15:29:04;;;;;;;0.70;0.70;;;10.70;99.90;;;;;;4955507;29;20700;-68
2024/02/06 15:31:30;;;;;;;0.30;0.30;;;10.60;99.90;;;;;;4955059;29;20405;-68
2024/02/06 15:33:55;;;;;;;0.30;0.30;;;10.60;99.90;;;;;;4963592;28;20269;-69
2024/02/06 15:36:21;;;;;;;0.50;0.50;;;10.60;99.90;;;;;;4967474;28;20241;-68
2024/02/06 15:38:47;;;;;;;1.57;1.47;;;10.50;99.90;;;;;;4957791;29;20234;-67
2024/02/06 15:41:13;;;;;;;0.30;0.30;;;10.50;99.90;;;;;;4957356;29;20181;-67
2024/02/06 15:43:38;;;;;;;0.30;0.30;;;10.40;99.90;;;;;;4953942;29;20541;-68
2024/02/06 15:46:07;;;;;;;0.30;0.30;;;10.30;99.90;;;;;;4954492;29;20469;-68
2024/02/06 15:48:36;;;;;;;0.30;0.30;;;10.30;99.90;;;;;;4954935;29;20194;-66
2024/02/06 15:51:03;;;;;;;0.30;0.30;;;10.30;99.90;;;;;;4964041;28;20438;-67
2024/02/06 15:53:30;;;;;;;0.30;0.30;;;10.20;99.90;;;;;;4974308;28;20424;-68
2024/02/06 15:55:56;;;;;;;0.30;0.30;;;10.10;99.90;;;;;;4965989;28;20517;-68
2024/02/06 15:58:22;;;;;;;0.30;0.30;;;10.10;99.90;;;;;;4969329;28;20413;-68
2024/02/06 16:00:48;;;;;;;0.30;0.30;;;10.10;99.90;;;;;;4971849;28;20457;-69
2024/02/06 16:03:14;;;;;;;0.30;0.30;;;10.00;99.90;;;;;;4973180;28;20222;-67
2024/02/06 16:05:40;;;;;;;0.30;0.30;;;10.00;99.90;;;;;;4970015;28;20276;-73
2024/02/06 16:08:06;;;;;;;0.30;0.30;;;10.00;99.90;;;;;;4967726;28;20832;-66
2024/02/06 16:10:33;;;;;;;0.30;0.30;;;9.90;99.90;;;;;;4964955;28;20688;-71
2024/02/06 16:12:58;;;;;;;0.30;0.20;;;9.80;99.90;;;;;;4969060;28;20527;-66
2024/02/06 16:15:24;;;;;;;0.30;0.30;;;9.80;99.90;;;;;;4975405;28;20201;-68
2024/02/06 16:17:49;;;;;;;0.50;0.50;;;9.70;99.90;;;;;;4962801;28;20185;-67
2024/02/06 16:20:17;;;;;;;0.30;0.30;;;9.60;99.90;;;;;;4977267;28;20177;-68
2024/02/06 16:22:43;;;;;;;0.30;0.30;;;9.50;99.90;;;;;;4966826;28;20185;-68
2024/02/06 16:25:09;;;;;;;0.30;0.30;;;9.50;99.90;;;;;;4971216;28;20191;-67
2024/02/06 16:27:34;;;;;;;0.30;0.30;;;9.40;99.90;;;;;;4977155;28;20196;-68
2024/02/06 16:30:00;;;;;;;0.40;0.40;;;9.30;99.90;;;;;;4971021;28;20228;-66
2024/02/06 16:32:25;;;;;;;0.33;0.33;;;9.30;99.90;;;;;;4965078;28;20215;-67
2024/02/06 16:34:51;;;;;;;0.30;0.30;;;9.30;99.90;;;;;;4967379;28;20184;-68
2024/02/06 16:37:17;;;;;;;0.30;0.30;;;9.30;99.90;;;;;;4973993;28;20285;-65
2024/02/06 16:39:42;;;;;;;0.33;0.33;;;9.20;99.90;;;;;;4973293;28;20180;-65
2024/02/06 16:42:08;;;;;;;0.30;0.30;;;9.20;99.90;;;;;;4972332;28;20181;-68
2024/02/06 16:44:34;;;;;;;0.30;0.30;;;9.20;99.90;;;;;;4959579;28;20186;-66
2024/02/06 16:47:00;;;;;;;0.30;0.30;;;9.10;99.90;;;;;;4988118;28;20557;-68
2024/02/06 16:49:25;;;;;;;0.30;0.30;;;9.00;99.90;;;;;;4988357;28;20219;-67
2024/02/06 16:51:51;;;;;;;0.30;0.30;;;9.00;99.90;;;;;;4963236;28;20221;-69
2024/02/06 16:54:17;;;;;;;0.30;0.30;;;8.90;99.90;;;;;;4961121;28;21154;-67
2024/02/06 16:56:43;;;;;;;0.47;0.47;;;8.90;99.90;;;;;;4973648;28;20738;-67
2024/02/06 16:59:09;;;;;;;0.40;0.40;;;8.80;99.90;;;;;;4972028;28;20547;-69
2024/02/06 17:01:35;;;;;;;0.53;0.53;;;8.80;99.90;;;;;;4960304;28;20184;-69
2024/02/06 17:04:00;;;;;;;0.30;0.30;;;8.80;99.90;;;;;;4973188;28;20227;-73
2024/02/06 17:06:26;;;;;;;0.30;0.30;;;8.80;99.90;;;;;;4995515;28;20558;-72
2024/02/06 17:08:52;;;;;;;0.30;0.30;;;8.70;99.90;;;;;;4974890;28;20185;-71
2024/02/06 17:11:20;;;;;;;0.30;0.30;;;8.70;99.90;;;;;;4965974;28;20203;-69
2024/02/06 17:13:46;;;;;;;0.30;0.30;;;8.60;99.90;;;;;;4966362;28;20184;-70
2024/02/06 17:16:12;;;;;;;0.33;0.33;;;8.60;99.90;;;;;;4967504;28;20211;-70
2024/02/06 17:18:38;;;;;;;0.30;0.30;;;8.50;99.90;;;;;;4975086;28;20609;-70
2024/02/06 17:21:04;;;;;;;0.32;0.32;;;8.50;99.90;;;;;;4966343;28;20206;-64
2024/02/06 17:23:30;;;;;;;0.30;0.30;;;8.50;99.90;;;;;;4969134;28;20180;-63
2024/02/06 17:25:57;;;;;;;0.30;0.30;;;8.40;99.90;;;;;;4966119;28;20462;-66
2024/02/06 17:28:23;;;;;;;0.30;0.30;;;8.40;99.90;;;;;;4971705;28;20219;-65
2024/02/06 17:30:49;;;;;;;0.30;0.30;;;8.30;99.90;;;;;;4976745;28;20195;-65
2024/02/06 17:33:15;;;;;;;0.30;0.30;;;8.30;99.90;;;;;;4975053;28;20582;-67
2024/02/06 17:35:41;;;;;;;0.40;0.40;;;8.30;99.90;;;;;;4973375;28;20521;-66
2024/02/06 17:38:07;;;;;;;0.50;0.50;;;8.30;99.90;;;;;;4975914;28;20176;-65
2024/02/06 17:40:34;;;;;;;0.30;0.30;;;8.20;99.90;;;;;;4975116;28;20570;-71
2024/02/06 17:43:00;;;;;;;0.30;0.30;;;8.20;99.90;;;;;;4951779;28;20208;-65
2024/02/06 17:45:26;;;;;;;0.30;0.30;;;8.20;99.90;;;;;;4953851;29;20243;-65
2024/02/06 17:47:52;;;;;;;0.30;0.30;;;8.10;99.90;;;;;;4955188;29;20195;-68
2024/02/06 17:50:18;;;;;;;0.30;0.30;;;8.10;99.90;;;;;;4945688;29;20303;-69
2024/02/06 17:52:44;;;;;;;0.30;0.30;;;8.10;99.90;;;;;;4941560;29;20210;-69
2024/02/06 17:55:10;;;;;;;0.40;0.40;;;8.00;99.90;;;;;;4943888;29;20233;-67